Undiscovered airport - Prishtina

Welcome to Prishtina, the beating heart of the country! Here, you will find rich historical heritage existing along the vibrating urban life of Europe’s youngest nation. Germia Park and the Bear Sanctuary offer a green escapade with plenty of outdoor activities. The world-famed Prishtina macchiato and good coffee savored like the locals do are a must during your stay, just like restaurants and night life.

Airport GND TWR APP Metar
BKPR BKPR 220800Z VRB01KT 0250 0200 R17/0375N R35/0325N FZFG VV002 M00/M00 Q1021 TEMPO 0700 FG

Approved controllers

Coming soon!